Time;durP1;ratioP1;P1;durP2;ratioP2;P2;SDS_P1;SDS_P2;PMS_P1;PMS_P2;Temp;Humidity;BMP_temperature;BMP_pressure;BME280_temperature;BME280_humidity;BME280_pressure;Samples;Min_cycle;Max_cycle;Signal;HPM_P1;HPM_P2
2022/08/08 00:00:22;;;;;;;22.13;18.13;;;;;;;;;;4907799;29;20542;-83
2022/08/08 00:03:13;;;;;;;22.60;16.60;;;;;;;;;;4892000;29;20053;-82
2022/08/08 00:06:05;;;;;;;26.17;16.33;;;;;;;;;;4923986;29;20755;-82
2022/08/08 00:09:00;;;;;;;23.50;15.82;;;;;;;;;;4937275;29;20515;-83
2022/08/08 00:11:32;;;;;;;24.58;16.55;;;;;;;;;;4915318;29;20027;-83
2022/08/08 00:14:06;;;;;;;19.58;15.00;;;;;;;;;;4921318;29;20425;-83
2022/08/08 00:16:35;;;;;;;24.20;15.43;;;;;;;;;;4906646;29;20456;-83
2022/08/08 00:19:03;;;;;;;26.55;17.30;;;;;;;;;;4922388;29;20038;-82
2022/08/08 00:21:40;;;;;;;22.63;17.65;;;;;;;;;;4938512;29;20041;-84
2022/08/08 00:24:20;;;;;;;29.00;17.08;;;;;;;;;;4936344;29;20164;-82
2022/08/08 00:26:49;;;;;;;26.80;19.85;;;;;;;;;;4936175;29;20058;-83
2022/08/08 00:29:23;;;;;;;28.60;19.45;;;;;;;;;;4938433;29;20028;-84
2022/08/08 00:31:50;;;;;;;28.42;21.05;;;;;;;;;;4924274;29;20126;-82
2022/08/08 00:37:47;;;;;;;30.85;21.65;;;;;;;;;;4921287;29;20027;-83
2022/08/08 00:40:31;;;;;;;30.23;21.45;;;;;;;;;;4891478;29;20050;-82
2022/08/08 00:43:14;;;;;;;29.83;21.42;;;;;;;;;;4921822;29;20036;-83
2022/08/08 00:46:13;;;;;;;38.03;22.90;;;;;;;;;;4922742;29;20044;-82
2022/08/08 00:49:00;;;;;;;27.02;20.08;;;;;;;;;;4921195;29;20034;-83
2022/08/08 00:51:31;;;;;;;35.47;22.83;;;;;;;;;;4941407;29;20093;-84
2022/08/08 00:54:11;;;;;;;32.50;22.65;;;;;;;;;;4912562;29;20078;-84
2022/08/08 00:57:08;;;;;;;27.55;21.23;;;;;;;;;;4909418;29;20051;-81
2022/08/08 01:00:09;;;;;;;33.22;22.27;;;;;;;;;;4891249;29;20036;-82
2022/08/08 01:02:56;;;;;;;27.10;21.77;;;;;;;;;;4903126;29;20361;-82
2022/08/08 01:05:42;;;;;;;33.50;21.92;;;;;;;;;;4907549;29;20035;-83
2022/08/08 01:08:39;;;;;;;31.88;23.05;;;;;;;;;;4893575;29;20035;-82
2022/08/08 01:11:26;;;;;;;36.15;24.15;;;;;;;;;;4895298;29;20510;-84
2022/08/08 01:14:13;;;;;;;31.05;21.65;;;;;;;;;;4912723;29;20476;-84
2022/08/08 01:17:16;;;;;;;38.92;23.38;;;;;;;;;;4913875;29;20032;-85
2022/08/08 01:20:03;;;;;;;32.58;23.35;;;;;;;;;;4930223;29;20039;-85
2022/08/08 01:23:14;;;;;;;32.75;22.27;;;;;;;;;;4904485;29;20159;-84
2022/08/08 01:25:46;;;;;;;35.28;24.30;;;;;;;;;;4897788;29;20036;-83
2022/08/08 01:28:33;;;;;;;40.33;25.00;;;;;;;;;;4901459;29;20064;-83
2022/08/08 01:31:04;;;;;;;40.78;23.77;;;;;;;;;;4902840;29;20091;-83
2022/08/08 01:33:59;;;;;;;36.55;24.13;;;;;;;;;;4919332;29;20036;-83
2022/08/08 01:36:35;;;;;;;37.47;24.00;;;;;;;;;;4919808;29;20048;-84
2022/08/08 01:39:28;;;;;;;39.90;24.45;;;;;;;;;;4905262;29;20066;-83
2022/08/08 01:42:33;;;;;;;27.10;20.77;;;;;;;;;;4920415;29;20092;-82
2022/08/08 01:45:15;;;;;;;35.03;22.27;;;;;;;;;;4882749;29;20784;-83
2022/08/08 01:48:02;;;;;;;31.27;21.27;;;;;;;;;;4908866;29;20135;-83
2022/08/08 01:50:32;;;;;;;31.48;23.15;;;;;;;;;;4916406;29;20041;-83
2022/08/08 01:53:32;;;;;;;32.33;23.40;;;;;;;;;;4907861;29;20080;-83
2022/08/08 01:56:16;;;;;;;34.15;22.90;;;;;;;;;;4928140;29;20032;-83
2022/08/08 01:58:44;;;;;;;;;;;;;;;;;;4941377;29;20070;-83
2022/08/08 02:01:32;;;;;;;38.72;24.40;;;;;;;;;;4949353;29;20789;-83
2022/08/08 02:04:09;;;;;;;36.08;24.70;;;;;;;;;;4920137;29;20048;-83
2022/08/08 02:07:05;;;;;;;36.08;24.98;;;;;;;;;;4905585;29;20027;-84
2022/08/08 02:09:50;;;;;;;39.28;24.85;;;;;;;;;;4909749;29;20052;-84
2022/08/08 02:12:21;;;;;;;41.97;26.10;;;;;;;;;;4929300;29;20135;-84
2022/08/08 02:15:33;;;;;;;28.92;22.30;;;;;;;;;;4927579;29;20046;-82
2022/08/08 02:18:25;;;;;;;39.00;25.08;;;;;;;;;;4904558;29;20051;-82
2022/08/08 02:24:10;;;;;;;37.10;25.23;;;;;;;;;;4936114;29;20110;-82
2022/08/08 02:26:41;;;;;;;44.20;26.40;;;;;;;;;;4903677;29;20054;-83
2022/08/08 02:29:17;;;;;;;40.33;26.05;;;;;;;;;;4886948;29;20044;-83
2022/08/08 02:32:12;;;;;;;39.10;25.83;;;;;;;;;;4931745;29;20056;-83
2022/08/08 02:34:44;;;;;;;37.70;25.73;;;;;;;;;;4871687;29;20034;-83
2022/08/08 02:37:22;;;;;;;45.50;29.25;;;;;;;;;;4901165;29;20436;-83
2022/08/08 02:39:59;;;;;;;41.78;27.73;;;;;;;;;;4928791;29;20047;-83
2022/08/08 02:42:49;;;;;;;49.72;32.17;;;;;;;;;;4958084;28;20050;-83
2022/08/08 02:45:32;;;;;;;49.63;33.25;;;;;;;;;;4919783;29;20063;-82
2022/08/08 02:48:36;;;;;;;56.35;34.45;;;;;;;;;;4922386;29;20369;-83
2022/08/08 02:51:16;;;;;;;49.78;32.28;;;;;;;;;;4927459;29;20039;-82
2022/08/08 02:53:51;;;;;;;40.40;30.08;;;;;;;;;;4927291;29;20067;-82
2022/08/08 02:56:35;;;;;;;48.42;32.05;;;;;;;;;;4926740;29;20047;-82
2022/08/08 02:59:22;;;;;;;48.47;32.60;;;;;;;;;;4944976;29;20031;-82
2022/08/08 03:01:53;;;;;;;46.63;32.03;;;;;;;;;;4929407;29;20040;-82
2022/08/08 03:04:40;;;;;;;39.42;28.50;;;;;;;;;;4927254;29;20095;-83
2022/08/08 03:07:44;;;;;;;52.10;34.60;;;;;;;;;;4930086;29;20032;-83
2022/08/08 03:10:35;;;;;;;47.47;30.77;;;;;;;;;;4924547;29;20114;-82
2022/08/08 03:13:25;;;;;;;52.25;33.38;;;;;;;;;;4927623;29;20035;-82
2022/08/08 03:16:24;;;;;;;51.20;33.47;;;;;;;;;;4953332;28;20035;-83
2022/08/08 03:18:52;;;;;;;52.22;33.75;;;;;;;;;;4931751;29;20039;-82
2022/08/08 03:21:17;;;;;;;46.83;30.92;;;;;;;;;;4939003;29;20043;-82
2022/08/08 03:23:42;;;;;;;49.30;32.80;;;;;;;;;;4938641;29;20396;-82
2022/08/08 03:26:08;;;;;;;51.75;33.35;;;;;;;;;;4904876;29;20118;-82
2022/08/08 03:28:45;;;;;;;58.00;34.90;;;;;;;;;;4921770;29;20395;-83
2022/08/08 03:33:55;;;;;;;48.03;31.75;;;;;;;;;;4929171;29;20091;-82
2022/08/08 03:36:21;;;;;;;46.78;30.67;;;;;;;;;;4920654;29;20531;-82
2022/08/08 03:38:50;;;;;;;47.22;29.05;;;;;;;;;;4920474;29;20067;-82
2022/08/08 03:41:16;;;;;;;51.50;29.92;;;;;;;;;;4930362;29;20103;-83
2022/08/08 03:43:42;;;;;;;51.72;31.17;;;;;;;;;;4953356;28;20040;-83
2022/08/08 03:46:07;;;;;;;58.45;33.72;;;;;;;;;;4904777;29;20028;-83
2022/08/08 03:48:33;;;;;;;51.10;31.98;;;;;;;;;;4924676;29;20031;-82
2022/08/08 03:50:59;;;;;;;43.80;29.85;;;;;;;;;;4930467;29;20561;-82
2022/08/08 03:53:25;;;;;;;46.63;29.48;;;;;;;;;;4907369;29;20027;-82
2022/08/08 03:55:50;;;;;;;44.80;29.80;;;;;;;;;;4922236;29;20039;-83
2022/08/08 03:58:21;;;;;;;44.92;29.02;;;;;;;;;;4937236;29;20453;-82
2022/08/08 04:00:54;;;;;;;55.78;34.00;;;;;;;;;;4935675;29;20039;-82
2022/08/08 04:03:19;;;;;;;43.70;31.02;;;;;;;;;;4935795;29;20025;-82
2022/08/08 04:05:45;;;;;;;51.05;31.73;;;;;;;;;;4917967;29;20395;-82
2022/08/08 04:08:16;;;;;;;54.75;32.30;;;;;;;;;;4905167;29;20508;-82
2022/08/08 04:10:41;;;;;;;46.63;32.33;;;;;;;;;;4903535;29;20107;-82
2022/08/08 04:13:06;;;;;;;50.97;31.42;;;;;;;;;;4906428;29;20055;-82
2022/08/08 04:15:32;;;;;;;42.28;29.83;;;;;;;;;;4954729;29;20036;-83
2022/08/08 04:17:57;;;;;;;49.85;31.30;;;;;;;;;;4922982;29;20535;-83
2022/08/08 04:20:22;;;;;;;54.95;33.38;;;;;;;;;;4910213;29;20083;-81
2022/08/08 04:22:48;;;;;;;53.00;32.17;;;;;;;;;;4905022;29;20087;-82
2022/08/08 04:25:13;;;;;;;50.17;30.70;;;;;;;;;;4905137;29;20035;-82
2022/08/08 04:27:39;;;;;;;49.58;32.75;;;;;;;;;;4904645;29;20051;-82
2022/08/08 04:30:05;;;;;;;56.75;32.88;;;;;;;;;;4903805;29;20192;-82
2022/08/08 04:32:30;;;;;;;52.63;34.40;;;;;;;;;;4919650;29;20048;-81
2022/08/08 04:34:56;;;;;;;50.85;33.53;;;;;;;;;;4921177;29;20066;-84
2022/08/08 04:37:21;;;;;;;53.00;33.78;;;;;;;;;;4915091;29;20046;-81
2022/08/08 04:39:46;;;;;;;53.72;32.95;;;;;;;;;;4919077;29;20050;-81
2022/08/08 04:42:12;;;;;;;46.30;30.95;;;;;;;;;;4919056;29;20059;-81
2022/08/08 04:44:37;;;;;;;55.55;29.80;;;;;;;;;;4956954;29;20103;-82
2022/08/08 04:47:03;;;;;;;48.13;31.65;;;;;;;;;;4943040;29;20066;-81
2022/08/08 04:49:28;;;;;;;48.72;32.03;;;;;;;;;;4941214;29;20034;-82
2022/08/08 04:51:53;;;;;;;50.70;32.20;;;;;;;;;;4938716;29;20036;-81
2022/08/08 04:54:20;;;;;;;52.83;33.67;;;;;;;;;;4934763;29;20096;-82
2022/08/08 04:56:45;;;;;;;48.15;34.13;;;;;;;;;;4918241;29;20047;-77
2022/08/08 04:59:11;;;;;;;44.63;31.48;;;;;;;;;;4898244;29;20492;-76
2022/08/08 05:01:36;;;;;;;53.60;32.88;;;;;;;;;;4870358;29;20118;-80
2022/08/08 05:04:02;;;;;;;49.72;31.58;;;;;;;;;;4900864;29;20035;-80
2022/08/08 05:06:27;;;;;;;54.42;32.08;;;;;;;;;;4908891;29;20563;-79
2022/08/08 05:08:52;;;;;;;45.60;29.75;;;;;;;;;;4928318;29;20032;-79
2022/08/08 05:11:19;;;;;;;52.33;34.13;;;;;;;;;;4914509;29;20036;-77
2022/08/08 05:13:44;;;;;;;51.60;33.35;;;;;;;;;;4880721;29;20070;-78
2022/08/08 05:16:11;;;;;;;48.20;32.72;;;;;;;;;;4897810;29;20035;-80
2022/08/08 05:18:36;;;;;;;47.78;32.40;;;;;;;;;;4931521;29;20495;-80
2022/08/08 05:21:03;;;;;;;47.78;32.00;;;;;;;;;;4901386;29;20082;-80
2022/08/08 05:23:29;;;;;;;58.47;33.53;;;;;;;;;;4915214;29;20071;-80
2022/08/08 05:25:54;;;;;;;49.85;30.15;;;;;;;;;;4902519;29;20038;-79
2022/08/08 05:28:19;;;;;;;47.95;32.75;;;;;;;;;;4913902;29;20552;-79
2022/08/08 05:30:45;;;;;;;53.92;33.45;;;;;;;;;;4910711;29;20398;-79
2022/08/08 05:33:10;;;;;;;53.78;32.38;;;;;;;;;;4900676;29;20091;-79
2022/08/08 05:35:36;;;;;;;43.65;28.85;;;;;;;;;;4928850;29;20111;-79
2022/08/08 05:38:05;;;;;;;43.15;28.70;;;;;;;;;;4881995;29;20546;-80
2022/08/08 05:40:32;;;;;;;45.10;29.63;;;;;;;;;;4928944;29;20050;-80
2022/08/08 05:43:03;;;;;;;48.90;30.90;;;;;;;;;;4881482;29;20047;-80
2022/08/08 05:45:30;;;;;;;40.53;28.77;;;;;;;;;;4898327;29;20484;-79
2022/08/08 05:47:56;;;;;;;47.05;28.67;;;;;;;;;;4878516;29;20031;-79
2022/08/08 05:50:22;;;;;;;40.95;27.58;;;;;;;;;;4916796;29;20063;-80
2022/08/08 05:52:47;;;;;;;37.78;25.42;;;;;;;;;;4884464;29;20047;-78
2022/08/08 05:55:12;;;;;;;48.83;25.25;;;;;;;;;;4914926;29;20114;-79
2022/08/08 05:57:38;;;;;;;37.85;26.60;;;;;;;;;;4925875;29;20058;-79
2022/08/08 06:00:06;;;;;;;36.17;25.38;;;;;;;;;;4932180;29;20839;-80
2022/08/08 06:05:16;;;;;;;43.58;26.55;;;;;;;;;;4901935;29;20040;-79
2022/08/08 06:07:42;;;;;;;37.67;25.92;;;;;;;;;;4912216;29;20023;-80
2022/08/08 06:10:08;;;;;;;35.80;25.10;;;;;;;;;;4910374;29;20038;-77
2022/08/08 06:12:35;;;;;;;41.85;24.70;;;;;;;;;;4926521;29;20495;-76
2022/08/08 06:15:01;;;;;;;43.55;25.02;;;;;;;;;;4912467;29;20032;-75
2022/08/08 06:17:26;;;;;;;51.35;24.13;;;;;;;;;;4932679;29;20027;-76
2022/08/08 06:19:51;;;;;;;39.15;25.27;;;;;;;;;;4927936;29;20499;-77
2022/08/08 06:22:17;;;;;;;37.10;24.70;;;;;;;;;;4897182;29;20031;-76
2022/08/08 06:24:42;;;;;;;32.90;23.42;;;;;;;;;;4880026;29;20112;-76
2022/08/08 06:27:08;;;;;;;32.03;21.83;;;;;;;;;;4885434;29;20036;-76
2022/08/08 06:29:44;;;;;;;36.22;22.08;;;;;;;;;;4913007;29;20361;-76
2022/08/08 06:32:14;;;;;;;29.42;21.38;;;;;;;;;;4881761;29;20040;-76
2022/08/08 06:34:41;;;;;;;28.48;18.17;;;;;;;;;;4913502;29;20032;-77
2022/08/08 06:37:09;;;;;;;20.15;14.23;;;;;;;;;;4893070;29;20091;-77
2022/08/08 06:39:35;;;;;;;22.95;14.15;;;;;;;;;;4868912;29;20048;-77
2022/08/08 06:42:03;;;;;;;19.30;13.18;;;;;;;;;;4884869;29;20211;-77
2022/08/08 06:44:29;;;;;;;15.88;12.57;;;;;;;;;;4855906;29;20032;-77
2022/08/08 06:46:55;;;;;;;19.88;10.63;;;;;;;;;;4888863;29;20055;-77
2022/08/08 06:49:20;;;;;;;15.35;8.35;;;;;;;;;;4909152;29;20138;-77
2022/08/08 06:51:45;;;;;;;13.82;8.10;;;;;;;;;;4889153;29;20456;-76
2022/08/08 06:54:12;;;;;;;15.85;7.85;;;;;;;;;;4861893;29;20040;-77
2022/08/08 06:56:37;;;;;;;15.88;7.63;;;;;;;;;;4866539;29;20114;-77
2022/08/08 06:59:03;;;;;;;16.65;6.45;;;;;;;;;;4895287;29;20286;-78
2022/08/08 07:01:29;;;;;;;11.65;5.75;;;;;;;;;;4878899;29;20400;-78
2022/08/08 07:04:00;;;;;;;13.18;5.72;;;;;;;;;;4911218;29;20027;-77
2022/08/08 07:06:27;;;;;;;11.85;5.50;;;;;;;;;;4866460;29;20032;-77
2022/08/08 07:09:01;;;;;;;7.35;4.30;;;;;;;;;;4910532;29;20035;-77
2022/08/08 07:11:28;;;;;;;8.25;3.55;;;;;;;;;;4909307;29;20115;-77
2022/08/08 07:13:57;;;;;;;7.82;3.40;;;;;;;;;;4894021;29;20392;-77
2022/08/08 07:16:35;;;;;;;11.15;3.78;;;;;;;;;;4903608;29;20024;-77
2022/08/08 07:19:11;;;;;;;12.27;3.35;;;;;;;;;;4910082;29;20036;-78
2022/08/08 07:21:41;;;;;;;12.25;3.10;;;;;;;;;;4910286;29;20040;-78
2022/08/08 07:24:11;;;;;;;8.43;2.67;;;;;;;;;;4895584;29;20035;-79
2022/08/08 07:26:37;;;;;;;7.57;2.45;;;;;;;;;;4909563;29;20103;-77
2022/08/08 07:29:03;;;;;;;5.45;2.28;;;;;;;;;;4865644;29;20119;-79
2022/08/08 07:31:28;;;;;;;8.40;2.42;;;;;;;;;;4884456;29;20476;-79
2022/08/08 07:33:54;;;;;;;9.65;2.97;;;;;;;;;;4868228;29;20107;-79
2022/08/08 07:36:20;;;;;;;7.03;2.25;;;;;;;;;;4898661;29;20040;-79
2022/08/08 07:38:46;;;;;;;9.65;2.80;;;;;;;;;;4921307;29;20051;-77
2022/08/08 07:41:11;;;;;;;9.65;2.80;;;;;;;;;;4902090;29;20570;-77
2022/08/08 07:43:36;;;;;;;8.05;2.42;;;;;;;;;;4949618;29;20028;-78
2022/08/08 07:46:02;;;;;;;8.98;2.50;;;;;;;;;;4886729;29;20400;-79
2022/08/08 07:48:29;;;;;;;9.18;2.30;;;;;;;;;;4916534;29;20293;-79
2022/08/08 07:50:57;;;;;;;7.35;1.90;;;;;;;;;;4901978;29;20441;-78
2022/08/08 07:53:46;;;;;;;6.43;2.05;;;;;;;;;;4917744;29;20480;-78
2022/08/08 07:56:12;;;;;;;8.02;2.10;;;;;;;;;;4904753;29;20024;-78
2022/08/08 07:58:39;;;;;;;9.90;1.90;;;;;;;;;;4918412;29;20110;-78
2022/08/08 08:01:06;;;;;;;7.15;1.80;;;;;;;;;;4886630;29;20028;-78
2022/08/08 08:03:33;;;;;;;6.05;1.95;;;;;;;;;;4902283;29;20019;-78
2022/08/08 08:05:58;;;;;;;6.07;1.27;;;;;;;;;;4918628;29;20027;-78
2022/08/08 08:08:41;;;;;;;7.65;1.95;;;;;;;;;;4933863;29;20514;-79
2022/08/08 08:11:10;;;;;;;4.88;1.42;;;;;;;;;;4902494;29;20126;-79
2022/08/08 08:13:55;;;;;;;8.27;2.00;;;;;;;;;;4934021;29;20028;-78
2022/08/08 08:16:25;;;;;;;6.70;2.40;;;;;;;;;;4920209;29;20032;-79
2022/08/08 08:18:51;;;;;;;6.22;1.65;;;;;;;;;;4933095;28;20031;-79
2022/08/08 08:21:17;;;;;;;5.03;1.77;;;;;;;;;;4917335;29;20071;-79
2022/08/08 08:23:42;;;;;;;6.20;1.92;;;;;;;;;;4899396;29;20111;-79
2022/08/08 08:26:07;;;;;;;5.57;1.40;;;;;;;;;;4899850;29;20731;-78
2022/08/08 08:28:33;;;;;;;7.90;1.90;;;;;;;;;;4902012;29;20051;-78
2022/08/08 08:31:03;;;;;;;7.47;1.67;;;;;;;;;;4915917;29;20059;-79
2022/08/08 08:33:29;;;;;;;7.03;1.60;;;;;;;;;;4931687;29;20048;-78
2022/08/08 08:35:54;;;;;;;5.38;1.50;;;;;;;;;;4902377;29;20036;-78
2022/08/08 08:38:19;;;;;;;8.90;2.03;;;;;;;;;;4917053;29;20084;-79
2022/08/08 08:40:45;;;;;;;7.60;1.73;;;;;;;;;;4917339;29;20052;-79
2022/08/08 08:43:10;;;;;;;5.57;1.52;;;;;;;;;;4933368;29;20035;-78
2022/08/08 08:45:36;;;;;;;5.38;1.25;;;;;;;;;;4901338;29;20122;-79
2022/08/08 08:48:02;;;;;;;6.55;1.85;;;;;;;;;;4933857;29;20126;-78
2022/08/08 08:50:27;;;;;;;6.32;1.67;;;;;;;;;;4929165;29;20163;-78
2022/08/08 08:52:53;;;;;;;6.90;1.42;;;;;;;;;;4917185;29;20028;-78
2022/08/08 08:55:19;;;;;;;4.57;1.15;;;;;;;;;;4902913;29;20615;-79
2022/08/08 08:57:44;;;;;;;6.88;1.83;;;;;;;;;;4901396;29;20071;-79
2022/08/08 09:00:10;;;;;;;8.15;2.22;;;;;;;;;;4918646;29;20433;-79
2022/08/08 09:02:39;;;;;;;6.25;1.38;;;;;;;;;;4903218;29;20031;-79
2022/08/08 09:05:08;;;;;;;7.63;1.60;;;;;;;;;;4900834;29;20439;-79
2022/08/08 09:07:34;;;;;;;6.18;1.70;;;;;;;;;;4914938;29;20032;-79
2022/08/08 09:09:59;;;;;;;4.82;1.42;;;;;;;;;;4912890;29;20499;-79
2022/08/08 09:12:25;;;;;;;7.30;1.77;;;;;;;;;;4900626;29;20114;-79
2022/08/08 09:14:53;;;;;;;9.52;1.95;;;;;;;;;;4894725;29;20084;-79
2022/08/08 09:17:18;;;;;;;7.00;1.50;;;;;;;;;;4926382;29;20046;-79
2022/08/08 09:19:45;;;;;;;4.50;1.65;;;;;;;;;;4898830;29;20024;-79
2022/08/08 09:22:10;;;;;;;8.70;1.75;;;;;;;;;;4910432;29;20381;-78
2022/08/08 09:24:36;;;;;;;7.40;1.75;;;;;;;;;;4898802;29;20038;-79
2022/08/08 09:27:02;;;;;;;7.18;1.20;;;;;;;;;;4910133;29;20039;-78
2022/08/08 09:29:30;;;;;;;4.65;1.10;;;;;;;;;;4911734;29;20407;-78
2022/08/08 09:32:05;;;;;;;8.80;1.70;;;;;;;;;;4926019;29;20064;-78
2022/08/08 09:34:31;;;;;;;5.43;1.35;;;;;;;;;;4910704;29;20028;-78
2022/08/08 09:37:07;;;;;;;5.13;1.17;;;;;;;;;;4914531;29;20036;-78
2022/08/08 09:39:48;;;;;;;5.10;1.17;;;;;;;;;;4913550;29;20052;-80
2022/08/08 09:42:15;;;;;;;5.90;1.38;;;;;;;;;;4925059;29;20032;-80
2022/08/08 09:44:56;;;;;;;4.40;1.00;;;;;;;;;;4887391;29;20035;-81
2022/08/08 09:47:22;;;;;;;7.50;1.20;;;;;;;;;;4901188;29;20039;-81
2022/08/08 09:49:47;;;;;;;3.33;0.82;;;;;;;;;;4933437;29;20091;-81
2022/08/08 09:52:13;;;;;;;6.40;1.20;;;;;;;;;;4931339;29;20127;-82
2022/08/08 09:54:41;;;;;;;5.20;1.42;;;;;;;;;;4918985;29;20066;-82
2022/08/08 09:57:08;;;;;;;5.07;1.58;;;;;;;;;;4934654;29;20043;-82
2022/08/08 09:59:34;;;;;;;2.08;0.95;;;;;;;;;;4900292;29;20533;-82
2022/08/08 10:01:59;;;;;;;9.45;1.40;;;;;;;;;;4900689;29;20032;-83
2022/08/08 10:04:25;;;;;;;4.35;1.27;;;;;;;;;;4938365;29;20030;-83
2022/08/08 10:06:51;;;;;;;5.22;1.30;;;;;;;;;;4918997;29;20031;-83
2022/08/08 10:09:16;;;;;;;6.15;1.02;;;;;;;;;;4917958;29;20036;-83
2022/08/08 10:11:47;;;;;;;4.13;1.20;;;;;;;;;;4950626;29;20031;-81
2022/08/08 10:14:12;;;;;;;3.72;1.10;;;;;;;;;;4901051;29;20399;-81
2022/08/08 10:16:38;;;;;;;5.70;1.80;;;;;;;;;;4919024;29;20032;-81
2022/08/08 10:19:04;;;;;;;7.53;1.50;;;;;;;;;;4914743;29;20067;-81
2022/08/08 10:21:31;;;;;;;3.28;1.10;;;;;;;;;;4916220;29;20024;-82
2022/08/08 10:23:58;;;;;;;6.55;1.42;;;;;;;;;;4930014;29;20047;-82
2022/08/08 10:26:40;;;;;;;6.43;1.58;;;;;;;;;;4917928;29;20042;-82
2022/08/08 10:29:10;;;;;;;3.10;0.88;;;;;;;;;;4917681;29;20122;-82
2022/08/08 10:34:21;;;;;;;4.82;1.08;;;;;;;;;;4944535;29;20027;-82
2022/08/08 10:36:47;;;;;;;6.00;1.20;;;;;;;;;;4951575;29;20435;-81
2022/08/08 10:39:20;;;;;;;4.18;1.33;;;;;;;;;;4921327;29;20048;-81
2022/08/08 10:41:57;;;;;;;4.97;1.20;;;;;;;;;;4926317;29;20043;-81
2022/08/08 10:44:31;;;;;;;8.75;1.20;;;;;;;;;;4927849;29;20134;-82
2022/08/08 10:47:13;;;;;;;5.50;1.20;;;;;;;;;;4921104;29;20043;-83
2022/08/08 10:49:48;;;;;;;3.28;1.02;;;;;;;;;;4933634;29;20078;-82
2022/08/08 10:52:32;;;;;;;5.25;1.15;;;;;;;;;;4907865;29;20023;-82
2022/08/08 10:55:07;;;;;;;4.85;1.20;;;;;;;;;;4919932;29;20031;-82
2022/08/08 10:57:37;;;;;;;6.32;1.40;;;;;;;;;;4929442;29;20055;-83
2022/08/08 11:00:03;;;;;;;6.40;1.27;;;;;;;;;;4908573;29;20115;-82
2022/08/08 11:02:30;;;;;;;5.45;1.27;;;;;;;;;;4917216;29;20487;-82
2022/08/08 11:04:59;;;;;;;7.70;1.73;;;;;;;;;;4919665;29;20031;-82
2022/08/08 11:07:24;;;;;;;4.78;1.40;;;;;;;;;;4902687;29;20110;-82
2022/08/08 11:09:50;;;;;;;5.43;2.15;;;;;;;;;;4917196;29;20549;-82
2022/08/08 11:12:15;;;;;;;3.92;1.30;;;;;;;;;;4898796;29;20059;-82
2022/08/08 11:14:49;;;;;;;3.85;1.05;;;;;;;;;;4898082;29;20028;-82
2022/08/08 11:17:16;;;;;;;6.07;1.05;;;;;;;;;;4918098;29;20043;-82
2022/08/08 11:19:41;;;;;;;4.10;1.25;;;;;;;;;;4932711;29;20092;-82
2022/08/08 11:22:07;;;;;;;3.78;1.02;;;;;;;;;;4902566;29;20031;-82
2022/08/08 11:24:32;;;;;;;4.13;1.10;;;;;;;;;;4918303;29;20051;-82
2022/08/08 11:26:57;;;;;;;3.97;1.08;;;;;;;;;;4920660;29;20154;-81
2022/08/08 11:29:23;;;;;;;6.28;1.00;;;;;;;;;;4930351;29;20492;-82
2022/08/08 11:31:48;;;;;;;2.75;0.82;;;;;;;;;;4917888;29;20036;-82
2022/08/08 11:34:15;;;;;;;6.32;1.42;;;;;;;;;;4903855;29;20088;-82
2022/08/08 11:36:41;;;;;;;4.03;1.00;;;;;;;;;;4919761;29;20028;-82
2022/08/08 11:39:07;;;;;;;5.70;1.30;;;;;;;;;;4915796;29;20875;-82
2022/08/08 11:41:35;;;;;;;4.75;0.80;;;;;;;;;;4912732;29;20038;-81
2022/08/08 11:44:00;;;;;;;4.03;1.23;;;;;;;;;;4929664;29;20042;-81
2022/08/08 11:46:26;;;;;;;5.18;1.35;;;;;;;;;;4917007;29;20087;-81
2022/08/08 11:48:52;;;;;;;5.78;1.00;;;;;;;;;;4914778;29;20152;-82
2022/08/08 11:51:17;;;;;;;3.20;0.70;;;;;;;;;;4899596;29;20034;-81
2022/08/08 11:53:43;;;;;;;4.53;0.82;;;;;;;;;;4944537;28;20030;-81
2022/08/08 11:56:17;;;;;;;5.28;1.15;;;;;;;;;;4925315;29;20145;-82
2022/08/08 11:58:42;;;;;;;5.55;0.93;;;;;;;;;;4913615;29;20046;-82
2022/08/08 12:01:07;;;;;;;4.85;1.10;;;;;;;;;;4903096;29;20028;-82
2022/08/08 12:03:33;;;;;;;5.47;1.13;;;;;;;;;;4884253;29;20034;-82
2022/08/08 12:05:58;;;;;;;5.80;1.00;;;;;;;;;;4894070;29;20067;-83
2022/08/08 12:08:31;;;;;;;2.15;0.90;;;;;;;;;;4916185;29;20043;-82
2022/08/08 12:11:02;;;;;;;7.55;1.10;;;;;;;;;;4900465;29;20043;-82
2022/08/08 12:13:27;;;;;;;5.60;1.10;;;;;;;;;;4922392;29;20034;-81
2022/08/08 12:15:52;;;;;;;4.32;1.15;;;;;;;;;;4939172;29;20035;-81
2022/08/08 12:18:23;;;;;;;6.95;1.20;;;;;;;;;;4912608;29;20062;-80
2022/08/08 12:20:50;;;;;;;9.40;1.67;;;;;;;;;;4904926;29;20103;-81
2022/08/08 12:23:28;;;;;;;3.22;0.88;;;;;;;;;;4901864;29;20345;-82
2022/08/08 12:25:53;;;;;;;4.57;1.10;;;;;;;;;;4925097;29;20039;-82
2022/08/08 12:28:18;;;;;;;6.30;1.10;;;;;;;;;;4889750;29;20041;-82
2022/08/08 12:30:44;;;;;;;2.03;1.13;;;;;;;;;;4919398;29;20059;-82
2022/08/08 12:33:25;;;;;;;4.68;0.77;;;;;;;;;;4904885;29;20028;-82
2022/08/08 12:35:51;;;;;;;4.32;0.88;;;;;;;;;;4927714;29;20059;-82
2022/08/08 12:38:16;;;;;;;7.82;1.08;;;;;;;;;;4906551;29;20036;-82
2022/08/08 12:40:51;;;;;;;6.55;1.00;;;;;;;;;;4938317;29;20055;-82
2022/08/08 12:43:18;;;;;;;4.90;0.80;;;;;;;;;;4921264;29;20046;-81
2022/08/08 12:45:44;;;;;;;3.50;0.70;;;;;;;;;;4900481;29;20046;-82
2022/08/08 12:48:17;;;;;;;3.53;1.02;;;;;;;;;;4887990;29;20122;-82
2022/08/08 12:50:45;;;;;;;5.00;0.88;;;;;;;;;;4938494;29;20031;-81
2022/08/08 12:53:27;;;;;;;2.97;0.90;;;;;;;;;;4951205;28;20031;-81
2022/08/08 12:56:06;;;;;;;2.20;0.63;;;;;;;;;;4919556;29;20066;-82
2022/08/08 12:58:43;;;;;;;3.33;1.00;;;;;;;;;;4937694;29;20032;-81
2022/08/08 13:01:09;;;;;;;5.63;1.13;;;;;;;;;;4945049;29;20027;-82
2022/08/08 13:03:34;;;;;;;4.72;1.10;;;;;;;;;;4939185;29;20055;-82
2022/08/08 13:06:11;;;;;;;5.60;0.85;;;;;;;;;;4907695;29;20526;-81
2022/08/08 13:08:48;;;;;;;4.57;1.48;;;;;;;;;;4938356;29;20051;-82
2022/08/08 13:11:25;;;;;;;3.90;1.10;;;;;;;;;;4936309;28;20043;-82
2022/08/08 13:14:05;;;;;;;4.22;1.20;;;;;;;;;;4922389;29;20038;-83
2022/08/08 13:16:33;;;;;;;4.38;1.13;;;;;;;;;;4897725;29;20118;-82
2022/08/08 13:19:00;;;;;;;2.38;1.05;;;;;;;;;;4921028;28;20034;-82
2022/08/08 13:21:25;;;;;;;4.80;1.30;;;;;;;;;;4904605;29;20028;-82
2022/08/08 13:23:51;;;;;;;4.38;1.00;;;;;;;;;;4916518;29;20107;-82
2022/08/08 13:26:16;;;;;;;3.53;1.05;;;;;;;;;;4918493;29;20051;-82
2022/08/08 13:28:42;;;;;;;3.65;0.95;;;;;;;;;;4936961;29;20035;-82
2022/08/08 13:31:10;;;;;;;5.10;1.10;;;;;;;;;;4919674;29;20035;-82
2022/08/08 13:33:35;;;;;;;5.85;0.88;;;;;;;;;;4926892;29;20126;-82
2022/08/08 13:36:02;;;;;;;3.20;1.00;;;;;;;;;;4903819;29;20083;-82
2022/08/08 13:38:29;;;;;;;3.38;0.80;;;;;;;;;;4935145;29;20053;-82
2022/08/08 13:40:55;;;;;;;3.13;1.00;;;;;;;;;;4935675;29;20039;-82
2022/08/08 13:43:20;;;;;;;4.75;0.93;;;;;;;;;;4935552;29;20429;-82
2022/08/08 13:45:46;;;;;;;2.58;0.85;;;;;;;;;;4910235;29;20293;-82
2022/08/08 13:48:12;;;;;;;4.50;1.20;;;;;;;;;;4902649;29;20424;-82
2022/08/08 13:50:43;;;;;;;4.13;1.17;;;;;;;;;;4938383;29;20034;-82
2022/08/08 13:53:09;;;;;;;3.83;0.95;;;;;;;;;;4934350;29;20443;-81
2022/08/08 13:55:34;;;;;;;6.45;0.90;;;;;;;;;;4917713;29;20122;-82
2022/08/08 13:58:00;;;;;;;5.22;1.08;;;;;;;;;;4905989;29;20472;-82
2022/08/08 14:00:25;;;;;;;3.05;0.80;;;;;;;;;;4919918;29;20104;-82
2022/08/08 14:02:58;;;;;;;3.28;1.05;;;;;;;;;;4918258;29;20054;-82
2022/08/08 14:05:28;;;;;;;4.85;0.90;;;;;;;;;;4941689;29;20125;-83
2022/08/08 14:07:53;;;;;;;4.38;1.00;;;;;;;;;;4916619;29;20036;-82
2022/08/08 14:10:19;;;;;;;3.88;1.20;;;;;;;;;;4920656;29;20116;-82
2022/08/08 14:12:45;;;;;;;4.57;1.20;;;;;;;;;;4919950;29;20040;-83
2022/08/08 14:15:32;;;;;;;6.05;1.00;;;;;;;;;;4926133;29;20036;-82
2022/08/08 14:17:58;;;;;;;8.40;1.42;;;;;;;;;;4902985;29;20039;-82
2022/08/08 14:20:38;;;;;;;6.10;1.13;;;;;;;;;;4930225;29;20059;-82
2022/08/08 14:23:09;;;;;;;5.45;1.10;;;;;;;;;;4904750;29;20047;-81
2022/08/08 14:25:45;;;;;;;2.97;0.85;;;;;;;;;;4909827;29;20039;-82
2022/08/08 14:28:10;;;;;;;7.40;1.17;;;;;;;;;;4925900;29;20507;-81
2022/08/08 14:30:36;;;;;;;4.38;1.08;;;;;;;;;;4888672;29;20059;-82
2022/08/08 14:33:01;;;;;;;3.80;1.10;;;;;;;;;;4946499;28;20067;-81
2022/08/08 14:35:27;;;;;;;6.68;1.15;;;;;;;;;;4896864;29;20035;-83
2022/08/08 14:37:53;;;;;;;7.30;1.08;;;;;;;;;;4948180;29;20036;-82
2022/08/08 14:40:23;;;;;;;4.43;1.10;;;;;;;;;;4949058;28;20047;-83
2022/08/08 14:42:57;;;;;;;4.38;1.10;;;;;;;;;;4908832;29;20496;-81
2022/08/08 14:45:24;;;;;;;4.00;0.90;;;;;;;;;;4926124;29;20108;-83
2022/08/08 14:47:59;;;;;;;4.05;1.08;;;;;;;;;;4930619;29;20039;-80
2022/08/08 14:50:34;;;;;;;4.97;1.10;;;;;;;;;;4898482;29;20102;-83
2022/08/08 14:53:02;;;;;;;4.85;0.73;;;;;;;;;;4946061;28;20119;-83
2022/08/08 14:55:28;;;;;;;7.40;1.48;;;;;;;;;;4913305;29;20031;-82
2022/08/08 14:57:56;;;;;;;10.35;1.38;;;;;;;;;;4903745;29;20132;-83
2022/08/08 15:00:22;;;;;;;3.95;0.82;;;;;;;;;;4881100;29;20023;-83
2022/08/08 15:02:51;;;;;;;5.22;1.38;;;;;;;;;;4894512;29;20079;-83
2022/08/08 15:05:17;;;;;;;4.88;1.05;;;;;;;;;;4895348;29;20038;-81
2022/08/08 15:07:45;;;;;;;4.72;1.85;;;;;;;;;;4926919;29;20084;-82